map of 49A home
49A - Airport
Location
City:  Ellijay, Georgia, United States
Name:Gilmer County Airport
FAA LID:49A

Details
Type:Airport (Airfield)
Use:Public/Civil
Latitude:3437'41"N (34.628194)
Longitude:8431'36"W (-84.526555)
Datum:WGS 1984
Elevation:1485 ft (453 m)
Variation:5.21W (WMM2015 magnetic declination)
-0.08 annual change
Runways:1
Longest:3507 × 75 ft (1069 × 23 m), paved

Time
Time Zone:UTC-5 (DST-4)
Local Time:

Weather
METAR:K49A 191935Z AUTO 00000KT 10SM CLR 31/20 A3006 RMK AO2 T03100195

Related Locations
Nearby:
Farthest:YAUG: 11322 mi / 18221 km
Augusta [Augusta Airport], WA, AU

Find:

   beyond  
but within

Other Information
Maps:
NOTAMs:
Links:
Sources:

  
  • flag of United States
  • flag of Georgia
  

Sectional Chart

Flight Planning
at skyvector.com

Satellite Image

Google Maps Satellite view

 

Copyright © 2004-2018 Karl L. Swartz. All rights reserved.
The Great Circle Mapper name and logo are trademarks of the Great Circle Mapper.
All other trademarks mentioned herein belong to their respective owners.
Please see credits for attibutions and further copyright information.

  Follow gcmap on Facebook Follow gcmap on Twitter Follow gcmap on Google+ GCmap on LinkedIn

hCard Microformat

Geo Microformat